Time;durP1;ratioP1;P1;durP2;ratioP2;P2;SDS_P1;SDS_P2;PMS_P1;PMS_P2;Temp;Humidity;BMP_temperature;BMP_pressure;BME280_temperature;BME280_humidity;BME280_pressure;Samples;Min_cycle;Max_cycle;Signal;HPM_P1;HPM_P2
2022/09/09 00:02:17;;;;;;;8.18;2.15;;;;;;;18.34;67.26;99522.44;5059930;28;20063;-85
2022/09/09 00:04:51;;;;;;;4.13;2.00;;;;;;;18.42;66.98;99508.88;5039281;28;20044;-85
2022/09/09 00:07:42;;;;;;;10.30;2.00;;;;;;;18.27;67.67;99510.78;5051658;28;20047;-86
2022/09/09 00:10:23;;;;;;;8.73;2.15;;;;;;;18.28;67.55;99512.47;5048323;28;20044;-85
2022/09/09 00:13:19;;;;;;;4.15;2.33;;;;;;;18.24;67.82;99512.00;5021023;28;20052;-85
2022/09/09 00:16:04;;;;;;;7.22;2.10;;;;;;;18.39;67.11;99517.31;4999038;28;20041;-85
2022/09/09 00:19:00;;;;;;;12.63;2.28;;;;;;;18.19;68.04;99519.81;5061957;28;20451;-85
2022/09/09 00:21:45;;;;;;;7.15;2.00;;;;;;;18.10;68.45;99512.94;4970262;28;20055;-85
2022/09/09 00:24:32;;;;;;;9.15;2.40;;;;;;;18.09;68.77;99506.75;5008781;28;20122;-86
2022/09/09 00:27:08;;;;;;;4.75;2.10;;;;;;;18.21;68.65;99505.16;5043194;28;20594;-85
2022/09/09 00:29:44;;;;;;;5.22;2.13;;;;;;;18.20;68.39;99516.13;5043696;28;20064;-85
2022/09/09 00:32:16;;;;;;;4.63;2.42;;;;;;;18.22;68.02;99500.66;5032154;28;20085;-85
2022/09/09 00:34:56;;;;;;;6.70;2.13;;;;;;;18.12;68.80;99506.34;5057298;28;20047;-85
2022/09/09 00:37:25;;;;;;;6.78;2.22;;;;;;;18.28;68.04;99505.25;5039222;28;20064;-85
2022/09/09 00:39:56;;;;;;;6.65;2.08;;;;;;;18.32;67.62;99511.91;5037462;28;20543;-85
2022/09/09 00:42:38;;;;;;;4.93;2.53;;;;;;;18.28;67.78;99509.78;5068415;28;20045;-85
2022/09/09 00:45:56;;;;;;;6.85;2.28;;;;;;;18.07;69.23;99507.97;5011771;28;20140;-86
2022/09/09 00:48:36;;;;;;;5.80;2.28;;;;;;;18.20;68.90;99516.13;5003619;28;20052;-86
2022/09/09 00:51:23;;;;;;;4.78;2.25;;;;;;;18.17;68.55;99513.84;5053647;28;20124;-85
2022/09/09 00:54:13;;;;;;;6.93;2.80;;;;;;;17.99;69.02;99516.97;5042982;28;20036;-85
2022/09/09 00:57:04;;;;;;;8.35;2.30;;;;;;;17.91;69.80;99517.06;5046240;28;20071;-87
2022/09/09 00:59:46;;;;;;;7.30;2.47;;;;;;;18.01;69.69;99528.34;5026924;28;20046;-85
2022/09/09 01:02:30;;;;;;;6.78;2.60;;;;;;;17.96;69.98;99523.56;5045144;28;20106;-85
2022/09/09 01:05:07;;;;;;;4.93;2.13;;;;;;;18.14;68.87;99520.44;5031716;28;20040;-86
2022/09/09 01:07:34;;;;;;;12.27;2.78;;;;;;;18.26;68.58;99530.66;5054475;28;20044;-86
2022/09/09 01:10:07;;;;;;;2.90;1.77;;;;;;;18.22;69.04;99522.97;5036992;28;20082;-86
2022/09/09 01:12:39;;;;;;;7.80;2.40;;;;;;;18.17;69.60;99521.91;5069225;28;20426;-86
2022/09/09 01:15:18;;;;;;;9.32;2.70;;;;;;;18.15;69.10;99522.09;5065654;28;20040;-86
2022/09/09 01:18:03;;;;;;;4.15;2.15;;;;;;;17.95;69.53;99518.38;5008464;28;20044;-86
2022/09/09 01:21:04;;;;;;;4.63;2.40;;;;;;;17.93;70.14;99521.22;5063639;28;20111;-86
2022/09/09 01:23:38;;;;;;;9.73;2.10;;;;;;;18.10;69.69;99515.63;5021519;28;20516;-86
2022/09/09 01:26:42;;;;;;;9.15;2.65;;;;;;;17.93;70.20;99517.72;4982331;28;20053;-86
2022/09/09 01:29:22;;;;;;;6.33;2.37;;;;;;;18.05;69.86;99515.38;5001948;28;20044;-86
2022/09/09 01:32:00;;;;;;;7.03;2.30;;;;;;;17.84;69.95;99505.47;5060195;28;20606;-86
2022/09/09 01:34:31;;;;;;;9.23;2.88;;;;;;;17.98;69.70;99515.28;5047090;28;20411;-87
2022/09/09 01:37:07;;;;;;;11.52;2.47;;;;;;;17.85;70.34;99510.63;5060258;28;20495;-87
2022/09/09 01:39:35;;;;;;;5.90;2.30;;;;;;;17.94;69.88;99519.41;5048642;28;20040;-86
2022/09/09 01:42:09;;;;;;;6.95;2.38;;;;;;;17.91;70.10;99520.63;5030209;28;20138;-86
2022/09/09 01:44:37;;;;;;;6.75;2.70;;;;;;;18.00;69.66;99516.75;5068569;28;20102;-87
2022/09/09 01:47:05;;;;;;;9.02;2.55;;;;;;;18.00;69.48;99514.06;5067732;28;20048;-85
2022/09/09 01:49:32;;;;;;;7.05;2.40;;;;;;;17.96;69.51;99514.66;5010999;28;20048;-86
2022/09/09 01:52:09;;;;;;;4.18;2.58;;;;;;;17.90;70.46;99518.09;5014223;28;20051;-87
2022/09/09 01:54:38;;;;;;;6.90;2.35;;;;;;;18.00;69.96;99519.44;5048072;28;20037;-86
2022/09/09 01:57:18;;;;;;;3.45;2.42;;;;;;;17.87;70.49;99527.38;5068907;28;20403;-86
2022/09/09 02:00:10;;;;;;;6.50;2.63;;;;;;;17.76;70.78;99533.22;5013788;28;20648;-86
2022/09/09 02:03:17;;;;;;;3.33;2.35;;;;;;;17.77;70.94;99524.97;5014885;28;20476;-85
2022/09/09 02:06:14;;;;;;;10.13;2.40;;;;;;;17.72;70.98;99522.03;5024973;28;20040;-86
2022/09/09 02:08:45;;;;;;;5.88;2.42;;;;;;;17.96;70.18;99528.94;5015847;28;20048;-88
2022/09/09 02:11:13;;;;;;;6.20;2.55;;;;;;;17.96;70.18;99536.13;5032936;28;20040;-86
2022/09/09 02:14:01;;;;;;;6.43;2.33;;;;;;;17.89;70.74;99517.28;5055601;28;20045;-86
2022/09/09 02:16:32;;;;;;;7.35;2.83;;;;;;;17.96;70.21;99515.50;5037050;28;20094;-86
2022/09/09 02:19:12;;;;;;;6.07;2.10;;;;;;;17.77;71.33;99502.66;5054474;28;20083;-86
2022/09/09 02:22:04;;;;;;;8.07;2.65;;;;;;;17.91;70.55;99509.00;4966315;28;20068;-87
2022/09/09 02:24:34;;;;;;;4.13;2.20;;;;;;;17.96;70.58;99512.81;5075843;28;20131;-87
2022/09/09 02:27:16;;;;;;;4.60;2.35;;;;;;;17.94;71.09;99520.22;5013996;28;20051;-86
2022/09/09 02:29:46;;;;;;;4.90;2.53;;;;;;;17.98;70.85;99515.28;5040913;28;20471;-87
2022/09/09 02:32:17;;;;;;;7.25;2.15;;;;;;;18.05;70.57;99518.06;5062508;28;20029;-87
2022/09/09 02:34:48;;;;;;;5.78;2.75;;;;;;;17.92;70.77;99514.22;5063646;28;20391;-87
2022/09/09 02:37:19;;;;;;;5.00;2.63;;;;;;;17.95;70.56;99513.81;5056725;28;20103;-86
2022/09/09 02:39:49;;;;;;;7.43;2.85;;;;;;;18.01;70.35;99517.59;5029700;28;20067;-86
2022/09/09 02:42:19;;;;;;;6.00;2.33;;;;;;;17.99;70.43;99508.91;5053383;28;20408;-86
2022/09/09 02:44:46;;;;;;;8.10;2.83;;;;;;;17.99;70.34;99508.91;5044703;28;20047;-93
2022/09/09 02:48:00;;;;;;;6.80;2.63;;;;;;;17.69;71.67;99506.28;5050713;28;20044;-93
2022/09/09 02:50:33;;;;;;;10.60;2.47;;;;;;;17.87;71.56;99511.25;4937438;28;20414;-93
2022/09/09 02:53:13;;;;;;;12.52;2.80;;;;;;;17.85;71.79;99504.44;5060651;28;20052;-93
2022/09/09 02:55:45;;;;;;;11.32;2.83;;;;;;;17.82;71.70;99510.19;5025974;28;20040;-93
2022/09/09 02:58:18;;;;;;;3.03;2.28;;;;;;;17.91;71.61;99503.66;5034791;28;20435;-93
2022/09/09 03:00:53;;;;;;;10.80;2.78;;;;;;;17.91;71.22;99499.13;4996569;28;20476;-93
2022/09/09 03:03:21;;;;;;;8.63;2.60;;;;;;;17.95;71.11;99500.38;5027721;28;20044;-94
2022/09/09 03:05:50;;;;;;;6.70;2.53;;;;;;;17.94;71.43;99501.44;5047934;28;20040;-93
2022/09/09 03:08:17;;;;;;;8.43;2.88;;;;;;;17.84;71.62;99492.03;5059885;28;20040;-92
2022/09/09 03:10:44;;;;;;;7.38;3.22;;;;;;;17.95;70.85;99495.03;5028701;28;20562;-93
2022/09/09 03:13:15;;;;;;;11.00;3.13;;;;;;;17.96;71.34;99487.78;5044266;28;20472;-93
2022/09/09 03:15:43;;;;;;;10.65;2.70;;;;;;;17.92;71.92;99497.28;5043981;28;20048;-92
2022/09/09 03:18:14;;;;;;;6.82;2.78;;;;;;;17.88;70.98;99488.75;5028663;28;20497;-93
2022/09/09 03:33:29;;;;;;;6.80;3.22;;;;;;;17.70;71.61;99491.84;5051768;28;20332;-93
2022/09/09 03:35:56;;;;;;;6.50;2.80;;;;;;;17.72;71.33;99487.13;5010695;28;20123;-92
2022/09/09 03:38:24;;;;;;;8.90;3.17;;;;;;;17.70;72.06;99493.69;5030455;28;20070;-93
2022/09/09 03:40:55;;;;;;;5.65;2.80;;;;;;;17.74;71.93;99495.00;5056926;28;20222;-94
2022/09/09 03:43:24;;;;;;;7.75;3.30;;;;;;;17.78;71.57;99491.75;5030225;28;20060;-93
2022/09/09 03:45:52;;;;;;;10.70;3.00;;;;;;;17.72;72.34;99499.72;5016537;28;20046;-94
2022/09/09 03:52:50;;;;;;;9.15;3.08;;;;;;;17.62;73.16;99493.81;5031381;28;20129;-93
2022/09/09 03:55:21;;;;;;;8.82;3.20;;;;;;;17.64;73.48;99489.91;5052721;28;20434;-93
2022/09/09 03:57:47;;;;;;;11.63;3.60;;;;;;;17.73;72.99;99485.25;5025618;28;20040;-94
2022/09/09 04:00:44;;;;;;;9.10;3.05;;;;;;;17.38;74.53;99498.50;5049770;28;20102;-92
2022/09/09 04:03:11;;;;;;;14.05;3.92;;;;;;;17.63;73.18;99500.84;4982627;28;20048;-94
2022/09/09 04:05:42;;;;;;;4.35;3.20;;;;;;;17.61;73.75;99506.41;5047126;28;20090;-94
2022/09/09 04:08:11;;;;;;;6.35;3.25;;;;;;;17.69;73.29;99497.41;5032879;28;20044;-90
2022/09/09 04:10:38;;;;;;;8.88;3.38;;;;;;;17.68;73.63;99499.28;5063259;28;20139;-93
2022/09/09 04:13:05;;;;;;;9.35;2.97;;;;;;;17.65;73.66;99504.19;5070531;28;20048;-90
2022/09/09 04:15:34;;;;;;;9.00;3.67;;;;;;;17.63;73.60;99504.38;5045632;28;20045;-91
2022/09/09 04:18:01;;;;;;;7.88;3.67;;;;;;;17.67;73.22;99510.19;5046581;28;20075;-87
2022/09/09 04:20:29;;;;;;;8.45;3.63;;;;;;;17.67;73.62;99515.56;5073289;28;20040;-87
2022/09/09 04:22:57;;;;;;;6.70;2.80;;;;;;;17.65;73.40;99510.38;5054982;28;20048;-88
2022/09/09 04:25:24;;;;;;;7.97;2.65;;;;;;;17.63;73.48;99508.91;5068124;28;20044;-89
2022/09/09 04:27:58;;;;;;;5.00;2.78;;;;;;;17.54;73.67;99519.75;5054476;28;20063;-88
2022/09/09 04:30:27;;;;;;;8.10;2.78;;;;;;;17.61;73.75;99527.06;5053491;28;20051;-87
2022/09/09 04:32:54;;;;;;;8.07;3.00;;;;;;;17.59;73.67;99516.50;5057236;28;20036;-87
2022/09/09 04:35:21;;;;;;;9.02;3.08;;;;;;;17.56;73.80;99509.66;5060475;28;20054;-88
2022/09/09 04:37:48;;;;;;;4.72;3.25;;;;;;;17.64;73.39;99518.63;5085358;28;20113;-87
2022/09/09 04:40:16;;;;;;;14.18;3.10;;;;;;;17.60;73.51;99525.38;5063166;28;20453;-88
2022/09/09 04:42:43;;;;;;;8.95;3.38;;;;;;;17.55;74.10;99523.25;5057367;28;20415;-87
2022/09/09 04:45:13;;;;;;;5.68;2.90;;;;;;;17.60;73.80;99526.22;5070712;28;20127;-88
2022/09/09 04:47:41;;;;;;;6.75;3.60;;;;;;;17.55;73.75;99529.50;5037114;28;20042;-87
2022/09/09 04:50:09;;;;;;;5.85;2.90;;;;;;;17.56;74.08;99535.69;5068885;28;20044;-88
2022/09/09 04:52:35;;;;;;;8.05;3.03;;;;;;;17.57;74.09;99535.47;5046796;28;20052;-87
2022/09/09 04:55:03;;;;;;;9.38;3.95;;;;;;;17.54;74.15;99543.09;5067133;28;20044;-88
2022/09/09 04:57:31;;;;;;;9.85;3.60;;;;;;;17.51;74.34;99540.78;5075064;28;20040;-88
2022/09/09 04:59:59;;;;;;;8.00;3.53;;;;;;;17.54;74.42;99540.41;5063503;28;20127;-87
2022/09/09 05:02:32;;;;;;;15.57;3.75;;;;;;;17.51;74.58;99546.16;5039759;28;20268;-87
2022/09/09 05:05:00;;;;;;;8.00;3.40;;;;;;;17.48;74.71;99544.69;5062740;28;20047;-88
2022/09/09 05:07:28;;;;;;;11.25;3.33;;;;;;;17.56;74.77;99549.09;5062700;28;20048;-88
2022/09/09 05:09:56;;;;;;;8.77;3.50;;;;;;;17.57;74.60;99548.91;5072869;28;20075;-88
2022/09/09 05:12:26;;;;;;;7.38;3.58;;;;;;;17.57;74.58;99548.06;5058748;28;20549;-87
2022/09/09 05:14:54;;;;;;;11.27;3.53;;;;;;;17.60;74.84;99552.25;5057533;28;20048;-88
2022/09/09 05:17:21;;;;;;;11.52;3.55;;;;;;;17.62;75.13;99550.19;5045007;28;20090;-87
2022/09/09 05:19:49;;;;;;;10.48;3.55;;;;;;;17.64;75.10;99556.22;5063528;28;20411;-88
2022/09/09 05:22:22;;;;;;;8.63;3.13;;;;;;;17.52;75.39;99564.75;5049109;28;20127;-88
2022/09/09 05:24:52;;;;;;;7.00;3.30;;;;;;;17.61;74.85;99552.06;5066855;28;20064;-88
2022/09/09 05:27:19;;;;;;;6.55;3.30;;;;;;;17.65;74.54;99557.88;5076330;28;20601;-88
2022/09/09 05:29:47;;;;;;;6.30;3.25;;;;;;;17.63;75.24;99555.41;5076887;28;20054;-88
2022/09/09 05:32:16;;;;;;;5.70;2.83;;;;;;;17.62;74.90;99555.56;5063723;28;20044;-88
2022/09/09 05:34:46;;;;;;;7.60;3.15;;;;;;;17.63;75.18;99559.91;5042619;28;20123;-87
2022/09/09 05:37:13;;;;;;;7.38;3.25;;;;;;;17.66;75.36;99563.06;5057908;28;20056;-88
2022/09/09 05:39:41;;;;;;;13.23;3.42;;;;;;;17.64;75.43;99558.91;5072652;28;20052;-88
2022/09/09 05:42:09;;;;;;;11.23;3.13;;;;;;;17.68;74.95;99566.41;5072290;28;20053;-88
2022/09/09 05:44:37;;;;;;;7.05;3.22;;;;;;;17.68;74.94;99563.72;5039005;28;20041;-88
2022/09/09 05:47:09;;;;;;;8.27;3.22;;;;;;;17.64;74.96;99578.53;5058471;28;20048;-88
2022/09/09 05:49:36;;;;;;;9.20;3.88;;;;;;;17.70;74.67;99575.09;5048457;28;20055;-88
2022/09/09 05:52:04;;;;;;;13.50;4.05;;;;;;;17.74;74.25;99578.25;5046714;28;20139;-88
2022/09/09 05:54:32;;;;;;;10.27;4.05;;;;;;;17.73;74.54;99577.41;5058745;28;20048;-88
2022/09/09 05:56:59;;;;;;;11.07;4.10;;;;;;;17.68;74.74;99577.16;5076322;28;20044;-87
2022/09/09 05:59:28;;;;;;;9.05;4.35;;;;;;;17.73;74.80;99566.66;5060446;28;20149;-88
2022/09/09 06:01:56;;;;;;;11.48;4.35;;;;;;;17.76;74.59;99576.22;5082801;28;20048;-87
2022/09/09 06:04:32;;;;;;;12.57;4.38;;;;;;;17.77;74.94;99575.16;5048375;28;20592;-88
2022/09/09 06:07:00;;;;;;;9.77;4.53;;;;;;;17.81;75.14;99578.34;5057425;28;20045;-87
2022/09/09 06:09:30;;;;;;;11.00;4.78;;;;;;;17.82;74.76;99571.97;5065206;28;20037;-88
2022/09/09 06:11:58;;;;;;;12.38;5.03;;;;;;;17.78;75.15;99571.44;5062770;28;20044;-88
2022/09/09 06:14:26;;;;;;;12.00;4.40;;;;;;;17.76;75.11;99571.66;5033418;28;20153;-88
2022/09/09 06:16:56;;;;;;;18.40;6.97;;;;;;;17.79;74.94;99575.81;5070773;28;20036;-88
2022/09/09 06:19:27;;;;;;;9.82;4.43;;;;;;;17.79;74.97;99575.81;5037493;28;20068;-89
2022/09/09 06:21:56;;;;;;;12.18;4.53;;;;;;;17.83;74.88;99569.06;5069546;28;20128;-88
2022/09/09 06:24:23;;;;;;;17.92;5.07;;;;;;;17.86;74.48;99575.91;5078270;28;20044;-88
2022/09/09 06:26:50;;;;;;;8.13;4.43;;;;;;;17.89;74.66;99565.63;5057488;28;20048;-88
2022/09/09 06:29:24;;;;;;;11.60;4.55;;;;;;;17.88;75.46;99580.06;5032885;28;20044;-87
2022/09/09 06:31:52;;;;;;;10.65;4.15;;;;;;;17.88;75.20;99584.63;5046175;28;20056;-88
2022/09/09 06:34:21;;;;;;;9.32;4.13;;;;;;;17.93;75.08;99582.19;5059890;28;20538;-88
2022/09/09 06:36:52;;;;;;;9.90;4.65;;;;;;;17.96;74.84;99589.88;5026895;28;20041;-88
2022/09/09 06:39:19;;;;;;;13.43;4.80;;;;;;;17.89;74.86;99581.75;5065508;28;20499;-88
2022/09/09 06:41:46;;;;;;;11.20;4.90;;;;;;;17.94;74.92;99582.03;5074411;28;20051;-88
2022/09/09 06:44:33;;;;;;;10.30;4.60;;;;;;;18.00;74.55;99580.41;5053416;28;20051;-88
2022/09/09 06:47:01;;;;;;;13.15;4.68;;;;;;;17.99;74.40;99576.91;5063883;28;20555;-89
2022/09/09 06:49:28;;;;;;;8.70;4.90;;;;;;;18.00;74.35;99583.94;5059305;28;20051;-88
2022/09/09 06:51:55;;;;;;;10.32;4.50;;;;;;;18.07;74.14;99577.81;5051542;28;20484;-87
2022/09/09 06:54:23;;;;;;;8.68;4.68;;;;;;;18.02;74.28;99582.94;5050309;28;20043;-89
2022/09/09 06:56:51;;;;;;;10.50;4.28;;;;;;;18.03;73.95;99590.78;5063836;28;20048;-88
2022/09/09 06:59:22;;;;;;;17.67;4.63;;;;;;;18.08;74.00;99585.66;5039846;28;20040;-88
2022/09/09 07:01:54;;;;;;;12.18;3.80;;;;;;;18.06;73.78;99592.25;5022591;28;20131;-88
2022/09/09 07:04:22;;;;;;;12.23;3.97;;;;;;;18.05;73.82;99595.97;5053535;28;20052;-88
2022/09/09 07:06:49;;;;;;;13.35;4.47;;;;;;;18.05;73.96;99583.38;5070741;28;20055;-89
2022/09/09 07:09:21;;;;;;;8.35;4.63;;;;;;;18.07;73.59;99583.19;5058171;28;20044;-88
2022/09/09 07:11:52;;;;;;;12.20;4.47;;;;;;;18.10;73.24;99585.50;5060962;28;20043;-88
2022/09/09 07:14:22;;;;;;;11.65;4.60;;;;;;;18.12;73.57;99578.91;5070299;28;20462;-88
2022/09/09 07:16:54;;;;;;;14.50;4.00;;;;;;;18.12;73.21;99578.06;5074216;28;20044;-88
2022/09/09 07:19:26;;;;;;;11.35;4.15;;;;;;;18.20;73.70;99584.16;5059819;28;20044;-88
2022/09/09 07:21:54;;;;;;;14.73;4.45;;;;;;;18.25;74.09;99580.88;5072683;28;20048;-88
2022/09/09 07:24:23;;;;;;;14.55;5.35;;;;;;;18.31;73.42;99580.09;5058954;28;20555;-87
2022/09/09 07:26:51;;;;;;;15.18;4.80;;;;;;;18.30;73.38;99583.84;5050257;28;20105;-88
2022/09/09 07:29:19;;;;;;;13.32;4.25;;;;;;;18.32;73.36;99579.09;5062184;28;20123;-88
2022/09/09 07:31:48;;;;;;;9.93;4.43;;;;;;;18.38;73.69;99585.56;5051453;28;20488;-88
2022/09/09 07:34:19;;;;;;;9.32;4.30;;;;;;;18.35;73.59;99586.78;5012445;28;20048;-88
2022/09/09 07:36:46;;;;;;;14.55;4.30;;;;;;;18.38;73.38;99591.75;5038023;28;20119;-88
2022/09/09 07:39:14;;;;;;;9.23;4.50;;;;;;;18.41;74.00;99591.38;5039962;28;20041;-88
2022/09/09 07:41:47;;;;;;;11.02;4.20;;;;;;;18.44;73.66;99591.00;5055073;28;20093;-88
2022/09/09 07:44:22;;;;;;;11.60;4.78;;;;;;;18.41;74.09;99588.69;5029724;28;20052;-88
2022/09/09 07:46:53;;;;;;;14.55;4.80;;;;;;;18.46;73.81;99596.19;5045513;28;20041;-87
2022/09/09 07:49:25;;;;;;;14.02;4.32;;;;;;;18.53;73.79;99604.31;5063744;28;20583;-88
2022/09/09 07:51:59;;;;;;;10.02;4.63;;;;;;;18.54;73.28;99605.97;5072120;28;20045;-88
2022/09/09 07:54:27;;;;;;;13.98;3.95;;;;;;;18.54;73.59;99598.72;5071866;28;20044;-88
2022/09/09 07:56:54;;;;;;;10.73;4.53;;;;;;;18.60;73.42;99597.16;5071195;28;20036;-88
2022/09/09 07:59:24;;;;;;;15.18;5.22;;;;;;;18.60;73.20;99600.66;5045079;28;20049;-88
2022/09/09 08:01:54;;;;;;;12.35;4.30;;;;;;;18.62;73.48;99597.75;5046323;28;20055;-88
2022/09/09 08:04:24;;;;;;;18.38;4.32;;;;;;;18.67;73.50;99589.94;5068829;28;20048;-88
2022/09/09 08:07:01;;;;;;;8.73;4.07;;;;;;;18.73;73.43;99593.72;5072830;28;20048;-88
2022/09/09 08:09:32;;;;;;;10.75;4.57;;;;;;;18.74;73.53;99592.69;5053081;28;20067;-88
2022/09/09 08:12:12;;;;;;;7.20;3.75;;;;;;;18.78;73.38;99600.22;5039822;28;20045;-88
2022/09/09 08:14:40;;;;;;;11.57;4.32;;;;;;;18.80;73.53;99597.31;5052300;28;20560;-88
2022/09/09 08:17:06;;;;;;;8.40;3.90;;;;;;;18.82;73.50;99604.16;5067694;28;20045;-87
2022/09/09 08:19:35;;;;;;;9.95;3.50;;;;;;;18.90;73.36;99594.28;5070303;28;20044;-88
2022/09/09 08:22:06;;;;;;;9.68;3.30;;;;;;;18.97;74.08;99600.56;5037341;28;20115;-88
2022/09/09 08:24:34;;;;;;;14.38;3.25;;;;;;;19.04;73.38;99594.19;5039854;28;20051;-88
2022/09/09 08:27:01;;;;;;;7.80;2.35;;;;;;;19.13;73.10;99591.34;5070470;28;20098;-88
2022/09/09 08:29:29;;;;;;;9.23;2.30;;;;;;;19.19;72.19;99586.00;5053391;28;20040;-88
2022/09/09 08:31:58;;;;;;;7.43;2.20;;;;;;;19.29;72.09;99577.59;5069765;28;20382;-89
2022/09/09 08:34:26;;;;;;;14.52;2.50;;;;;;;19.40;71.45;99581.56;5020446;28;20047;-88
2022/09/09 08:36:55;;;;;;;9.60;2.08;;;;;;;19.45;70.99;99577.25;5055082;28;20446;-88
2022/09/09 08:39:29;;;;;;;11.68;2.42;;;;;;;19.50;70.76;99574.78;5019188;28;20219;-89
2022/09/09 08:42:00;;;;;;;5.82;1.80;;;;;;;19.53;70.45;99582.47;5045161;28;20049;-88
2022/09/09 08:44:48;;;;;;;12.80;1.83;;;;;;;19.44;69.45;99580.97;5046815;28;20089;-89
2022/09/09 08:47:34;;;;;;;19.23;3.20;;;;;;;19.51;69.04;99587.25;4964456;28;20047;-89
2022/09/09 08:50:27;;;;;;;10.30;2.00;;;;;;;19.55;68.55;99589.53;5011178;28;20113;-88
2022/09/09 08:53:16;;;;;;;8.10;2.10;;;;;;;19.56;67.75;99585.78;5050027;28;20527;-87
2022/09/09 08:55:59;;;;;;;14.15;1.90;;;;;;;19.60;67.44;99593.28;5036612;28;20037;-89
2022/09/09 08:58:54;;;;;;;5.28;1.70;;;;;;;19.67;67.44;99579.88;4991261;28;20045;-89
2022/09/09 09:01:50;;;;;;;9.90;1.95;;;;;;;19.75;67.17;99576.19;4978252;28;20051;-88
2022/09/09 09:04:33;;;;;;;7.20;2.03;;;;;;;19.81;67.29;99567.28;5060494;28;20040;-89
2022/09/09 09:07:09;;;;;;;8.38;2.35;;;;;;;19.87;66.66;99571.84;5068658;28;20106;-88
2022/09/09 09:10:12;;;;;;;10.02;2.00;;;;;;;19.77;65.26;99574.09;5028270;28;20051;-88
2022/09/09 09:13:01;;;;;;;7.57;1.70;;;;;;;19.81;64.94;99564.56;5002810;28;20049;-88
2022/09/09 09:15:39;;;;;;;14.90;2.63;;;;;;;19.76;64.65;99575.97;5051718;28;20564;-89
2022/09/09 09:18:12;;;;;;;9.20;1.55;;;;;;;19.81;65.15;99584.25;5043992;28;20134;-89
2022/09/09 09:20:39;;;;;;;10.83;2.03;;;;;;;19.84;65.13;99580.34;5065688;28;20049;-88
2022/09/09 09:23:06;;;;;;;7.70;1.58;;;;;;;19.87;65.05;99571.84;5055931;28;20117;-87
2022/09/09 09:25:38;;;;;;;16.77;3.10;;;;;;;19.86;64.08;99568.31;5085775;28;20049;-88
2022/09/09 09:28:22;;;;;;;9.82;1.60;;;;;;;19.84;64.18;99569.56;5023390;28;20048;-87
2022/09/09 09:31:10;;;;;;;6.90;1.60;;;;;;;19.81;64.07;99561.88;5011251;28;20040;-88
2022/09/09 09:33:46;;;;;;;8.07;1.60;;;;;;;19.90;64.81;99571.47;5058302;28;20129;-88
2022/09/09 09:36:16;;;;;;;10.10;1.60;;;;;;;19.88;64.77;99570.81;5061478;28;20040;-88
2022/09/09 09:38:57;;;;;;;9.35;2.10;;;;;;;19.81;63.96;99586.97;5059315;28;20055;-88
2022/09/09 09:41:47;;;;;;;5.10;1.50;;;;;;;19.80;64.54;99588.00;5010522;28;20044;-88
2022/09/09 09:44:31;;;;;;;9.95;2.08;;;;;;;19.66;63.52;99599.72;5063670;28;20056;-87
2022/09/09 09:47:16;;;;;;;5.75;1.33;;;;;;;19.65;64.03;99600.75;4996317;28;20090;-88
2022/09/09 09:49:58;;;;;;;8.23;1.70;;;;;;;19.64;64.38;99599.94;4988295;28;20140;-87
2022/09/09 09:52:30;;;;;;;6.68;2.30;;;;;;;19.63;64.47;99590.16;5020245;28;20242;-88
2022/09/09 09:55:03;;;;;;;10.02;2.05;;;;;;;19.63;64.23;99589.34;5011498;28;20041;-89
2022/09/09 09:57:34;;;;;;;5.57;1.77;;;;;;;19.64;64.47;99580.22;5008377;28;20045;-88
2022/09/09 10:00:22;;;;;;;9.80;1.90;;;;;;;19.60;64.32;99565.50;5020742;28;20045;-88
2022/09/09 10:02:59;;;;;;;9.10;2.25;;;;;;;19.73;64.31;99557.50;4987316;28;20124;-88
2022/09/09 10:05:30;;;;;;;5.35;1.63;;;;;;;19.77;64.51;99556.09;4992327;28;20053;-87
2022/09/09 10:08:10;;;;;;;8.35;1.50;;;;;;;19.83;64.25;99560.66;5001835;28;20061;-87
2022/09/09 10:10:42;;;;;;;7.68;2.00;;;;;;;19.91;64.28;99546.16;4990802;28;20563;-88
2022/09/09 10:13:19;;;;;;;6.45;1.55;;;;;;;19.99;64.07;99547.84;5031297;28;20061;-87
2022/09/09 10:16:01;;;;;;;8.50;2.00;;;;;;;20.00;63.09;99553.03;5007288;28;20041;-87
2022/09/09 10:18:56;;;;;;;11.68;2.13;;;;;;;20.02;62.81;99552.81;5046107;28;20492;-88
2022/09/09 10:21:42;;;;;;;11.53;1.50;;;;;;;20.14;63.18;99545.78;4997069;28;20044;-87
2022/09/09 10:24:25;;;;;;;10.40;1.98;;;;;;;20.15;61.88;99548.28;5026545;28;20491;-87
2022/09/09 10:26:58;;;;;;;9.13;1.70;;;;;;;20.22;61.21;99529.41;5035168;28;20078;-86
2022/09/09 10:29:37;;;;;;;4.32;1.30;;;;;;;20.32;61.25;99545.19;5029962;28;20775;-87
2022/09/09 10:32:07;;;;;;;9.68;1.38;;;;;;;20.43;59.12;99543.75;5067554;28;20053;-87
2022/09/09 10:35:02;;;;;;;5.95;1.20;;;;;;;20.31;57.54;99547.06;5082565;28;20393;-86
2022/09/09 10:37:55;;;;;;;2.30;0.98;;;;;;;20.33;56.84;99531.50;5005680;28;20555;-86
2022/09/09 10:40:42;;;;;;;7.72;1.38;;;;;;;20.37;57.22;99548.91;5062265;28;20098;-88
2022/09/09 10:43:31;;;;;;;4.97;1.58;;;;;;;20.42;56.57;99539.41;5042373;28;20040;-87
2022/09/09 10:46:36;;;;;;;7.03;1.52;;;;;;;20.43;56.57;99539.19;5047728;28;20143;-88
2022/09/09 10:49:27;;;;;;;7.75;1.42;;;;;;;20.44;56.79;99526.53;5029201;28;20059;-88
2022/09/09 10:52:14;;;;;;;11.18;1.40;;;;;;;20.53;57.63;99522.56;5029640;28;20480;-88
2022/09/09 10:54:59;;;;;;;11.25;1.65;;;;;;;20.59;57.44;99527.19;5050544;28;20064;-87
2022/09/09 10:57:48;;;;;;;7.53;1.33;;;;;;;20.56;57.43;99523.03;5047222;28;20557;-89
2022/09/09 11:00:24;;;;;;;4.80;1.85;;;;;;;20.57;57.08;99535.47;5035853;28;20036;-90
2022/09/09 11:03:24;;;;;;;7.80;2.03;;;;;;;20.60;57.34;99529.66;5053669;28;20044;-88
2022/09/09 11:06:42;;;;;;;12.25;1.88;;;;;;;20.65;56.34;99544.41;5013486;28;20060;-85
2022/09/09 11:09:18;;;;;;;6.47;1.30;;;;;;;20.74;55.70;99529.66;4969956;28;20044;-85
2022/09/09 11:11:51;;;;;;;10.15;1.80;;;;;;;20.76;55.70;99533.81;5065277;28;20049;-84
2022/09/09 11:14:33;;;;;;;5.95;1.45;;;;;;;20.77;54.63;99531.94;5078586;28;20060;-85
2022/09/09 11:21:39;;;;;;;10.55;1.30;;;;;;;20.80;55.69;99520.72;5026969;28;20444;-84
2022/09/09 11:24:19;;;;;;;8.82;2.38;;;;;;;20.78;55.04;99530.88;5071891;28;20514;-85
2022/09/09 11:26:49;;;;;;;6.32;1.20;;;;;;;20.74;55.38;99533.19;5064337;28;20545;-85
2022/09/09 11:29:47;;;;;;;10.18;1.95;;;;;;;20.66;54.76;99529.84;5069664;28;20040;-85
2022/09/09 11:37:06;;;;;;;1.65;1.13;;;;;;;20.68;54.20;99522.41;5055438;28;20097;-85
2022/09/09 11:39:54;;;;;;;9.82;1.50;;;;;;;20.80;54.46;99523.41;5036273;28;20052;-85
2022/09/09 11:42:23;;;;;;;5.10;1.30;;;;;;;20.88;55.43;99512.41;5039007;28;20046;-85
2022/09/09 11:44:51;;;;;;;12.38;1.98;;;;;;;20.94;55.08;99525.06;5057598;28;20040;-86
2022/09/09 11:47:30;;;;;;;9.85;1.15;;;;;;;20.97;54.73;99529.22;5071260;28;20070;-84
2022/09/09 11:50:29;;;;;;;8.55;1.52;;;;;;;20.90;54.21;99515.72;5055084;28;20041;-86
2022/09/09 11:53:20;;;;;;;3.67;1.50;;;;;;;20.92;53.52;99510.94;5011533;28;20123;-87
2022/09/09 11:55:48;;;;;;;6.80;1.40;;;;;;;21.02;54.55;99502.41;5043379;28;20066;-86
2022/09/09 11:58:17;;;;;;;14.77;1.63;;;;;;;21.09;52.65;99514.03;5095960;28;20145;-86
2022/09/09 12:00:49;;;;;;;9.40;1.88;;;;;;;21.10;53.18;99501.34;5057557;28;20072;-86
2022/09/09 12:03:39;;;;;;;9.43;2.05;;;;;;;21.10;52.96;99504.88;5027286;28;20438;-87
2022/09/09 12:06:13;;;;;;;9.20;1.55;;;;;;;21.21;53.17;99509.59;4992887;28;21171;-87
2022/09/09 12:08:43;;;;;;;6.32;1.30;;;;;;;21.29;52.15;99505.03;5071907;28;20074;-87
2022/09/09 12:11:10;;;;;;;7.82;1.00;;;;;;;21.28;52.35;99512.28;5069659;28;20109;-86
2022/09/09 12:13:37;;;;;;;8.23;1.50;;;;;;;21.31;51.98;99503.75;5037182;28;20474;-87
2022/09/09 12:16:05;;;;;;;4.22;1.08;;;;;;;21.33;51.61;99500.84;5075070;28;20504;-88
2022/09/09 12:18:39;;;;;;;4.13;1.55;;;;;;;21.31;51.20;99487.56;5058766;28;20048;-87
2022/09/09 12:21:42;;;;;;;11.00;1.25;;;;;;;21.21;50.30;99503.38;5051892;28;20047;-87
2022/09/09 12:24:11;;;;;;;9.05;1.65;;;;;;;21.29;50.56;99492.34;5019743;28;20586;-86
2022/09/09 12:26:46;;;;;;;12.60;1.50;;;;;;;21.30;50.06;99494.00;5063271;28;20178;-87
2022/09/09 12:29:19;;;;;;;6.10;1.13;;;;;;;21.25;50.73;99491.13;5010563;28;20040;-87
2022/09/09 12:31:48;;;;;;;;;;;;;;;21.08;50.62;99487.25;5075154;28;20040;-86
2022/09/09 12:34:41;;;;;;;9.60;1.67;;;;;;;21.15;50.12;99494.28;5069643;28;20329;-86
2022/09/09 12:37:20;;;;;;;9.63;1.40;;;;;;;21.21;50.39;99485.31;5025037;28;20469;-86